Insider Trading History of Kinetics Asset Management Llc


The following table details the trading activities (stock purchases, stock sales, and stock option exercises) reported to the Securities and Exchange Commission (SEC) by insider Kinetics Asset Management Llc since year 2005. The trader's CIK number is 1011814. At the time of the last reporting, Kinetics Asset Management Llc was the 10% Owner of Texas Pacific Land Trust . (stock ticker symbol TPL). See this page for all insider trading activities at Texas Pacific Land Trust .


Stock purchases, sales, and option exercises reported by insider Kinetics Asset Management Llc since 2005.
  Trade Date   Symbol Company Name (Issuer) Trade Type     Shares       Price ($)   Value ($)
2019-05-03 TPL Texas Pacific Land Trust Buy 36 807.20 29,059
2019-05-02 TPL Texas Pacific Land Trust Buy 36 819.99 29,519
2019-05-01 TPL Texas Pacific Land Trust Buy 36 806.68 29,040
2019-04-30 TPL Texas Pacific Land Trust Buy 36 809.65 29,147
2019-04-29 TPL Texas Pacific Land Trust Buy 36 837.93 30,165
2019-04-26 TPL Texas Pacific Land Trust Buy 36 879.00 31,644
2019-04-25 TPL Texas Pacific Land Trust Buy 36 897.25 32,301
2019-04-24 TPL Texas Pacific Land Trust Buy 36 899.87 32,395
2019-04-23 TPL Texas Pacific Land Trust Buy 36 898.87 32,359
2019-04-22 TPL Texas Pacific Land Trust Buy 36 896.07 32,258
2019-04-18 TPL Texas Pacific Land Trust Buy 42 899.92 37,796
2019-04-17 TPL Texas Pacific Land Trust Buy 42 887.23 37,263
2019-04-16 TPL Texas Pacific Land Trust Buy 42 898.49 37,736
2019-04-15 TPL Texas Pacific Land Trust Buy 42 903.05 37,928
2019-04-12 TPL Texas Pacific Land Trust Buy 42 903.52 37,947
2019-04-11 TPL Texas Pacific Land Trust Buy 42 911.07 38,264
2019-04-10 TPL Texas Pacific Land Trust Buy 42 874.06 36,710
2019-04-09 TPL Texas Pacific Land Trust Buy 36 821.55 29,575
2019-04-08 TPL Texas Pacific Land Trust Buy 7 814.50 5,701
2019-04-05 TPL Texas Pacific Land Trust Buy 42 792.27 33,275
2019-04-04 TPL Texas Pacific Land Trust Buy 1,516 784.57 1,189,408
2019-04-03 TPL Texas Pacific Land Trust Buy 42 797.88 33,510
2019-04-02 TPL Texas Pacific Land Trust Buy 42 801.16 33,648
2019-04-01 TPL Texas Pacific Land Trust Buy 42 784.30 32,940
2019-03-29 TPL Texas Pacific Land Trust Buy 42 773.48 32,486
2019-03-28 TPL Texas Pacific Land Trust Buy 7 774.83 5,423
2019-03-27 TPL Texas Pacific Land Trust Buy 42 774.38 32,523
2019-03-26 TPL Texas Pacific Land Trust Buy 42 764.28 32,099
2019-03-25 TPL Texas Pacific Land Trust Buy 42 725.36 30,465
2019-03-22 TPL Texas Pacific Land Trust Buy 42 751.10 31,546
2019-03-21 TPL Texas Pacific Land Trust Buy 42 767.89 32,251
2019-03-20 TPL Texas Pacific Land Trust Buy 42 765.98 32,171
2019-03-19 TPL Texas Pacific Land Trust Buy 42 760.69 31,948
2019-03-18 TPL Texas Pacific Land Trust Buy 42 741.16 31,128
2019-03-15 TPL Texas Pacific Land Trust Buy 42 748.14 31,421

Insider trading activities including stock purchases, stock sales, and option exercises listed in the above table cannot be completely guaranteed as to their accuracy. For more information regarding the trades made by Kinetics Asset Management Llc (10% Owner of Texas Pacific Land Trust at the time of this reporting) see the Securities and Exchange Commission (SEC) website.




Real-time Insider Trading

Insider Officer Cluster Trading

Top Officer Buys of the Week

Top Officer Buys of the Month